createdAt,value
2023-07-21T00:01:19.046Z,77.18
2023-07-21T00:03:46.224Z,76.93
2023-07-21T00:06:18.088Z,77.30
2023-07-21T00:08:44.720Z,77.01
2023-07-21T00:11:11.336Z,77.57
2023-07-21T00:13:38.035Z,77.45
2023-07-21T00:16:05.671Z,77.60
2023-07-21T00:18:34.296Z,77.17
2023-07-21T00:21:01.270Z,77.46
2023-07-21T00:23:28.378Z,77.29
2023-07-21T00:25:55.857Z,77.07
2023-07-21T00:28:22.769Z,77.13
2023-07-21T00:30:49.671Z,76.81
2023-07-21T00:33:16.971Z,77.33
2023-07-21T00:35:44.295Z,77.04
2023-07-21T00:38:11.556Z,77.32
2023-07-21T00:40:39.025Z,77.30
2023-07-21T00:43:07.506Z,76.92
2023-07-21T00:45:38.683Z,77.25
2023-07-21T00:48:08.760Z,77.26
2023-07-21T00:50:48.713Z,77.50
2023-07-21T00:53:15.885Z,77.29
2023-07-21T00:55:43.419Z,77.38
2023-07-21T00:58:11.101Z,77.37
2023-07-21T01:00:38.417Z,77.88
2023-07-21T01:03:06.688Z,78.06
2023-07-21T01:05:36.834Z,77.49
2023-07-21T01:08:08.936Z,78.00
2023-07-21T01:10:37.921Z,77.68
2023-07-21T01:13:05.635Z,77.81
2023-07-21T01:15:35.429Z,77.90
2023-07-21T01:18:03.527Z,77.61
2023-07-21T01:20:31.034Z,77.91
2023-07-21T01:23:06.551Z,78.34
2023-07-21T01:25:36.603Z,78.11
2023-07-21T01:28:05.963Z,77.90
2023-07-21T01:30:33.660Z,77.91
2023-07-21T01:33:02.163Z,77.99
2023-07-21T01:35:31.995Z,78.37
2023-07-21T01:38:00.395Z,78.10
2023-07-21T01:40:28.117Z,78.52
2023-07-21T01:42:54.683Z,78.10
2023-07-21T01:45:21.345Z,78.23
2023-07-21T01:47:48.488Z,78.65
2023-07-21T01:50:18.593Z,78.92
2023-07-21T01:52:46.616Z,78.54
2023-07-21T01:55:23.485Z,78.18
2023-07-21T01:57:55.224Z,78.30
2023-07-21T02:00:26.074Z,78.58
2023-07-21T02:02:54.797Z,78.54
2023-07-21T02:05:23.458Z,78.53
2023-07-21T02:07:50.626Z,78.17
2023-07-21T02:10:18.307Z,77.95
2023-07-21T02:12:45.037Z,78.19
2023-07-21T02:15:11.834Z,78.60
2023-07-21T02:17:38.952Z,78.23
2023-07-21T02:20:08.846Z,79.03
2023-07-21T02:22:39.087Z,79.01
2023-07-21T02:25:06.832Z,79.39
2023-07-21T02:27:34.515Z,78.82
2023-07-21T02:30:02.091Z,78.61
2023-07-21T02:32:29.394Z,79.43
2023-07-21T02:34:59.124Z,78.45
2023-07-21T02:37:26.404Z,79.40
2023-07-21T02:39:53.250Z,79.13
2023-07-21T02:42:20.071Z,79.72
2023-07-21T02:44:47.025Z,78.98
2023-07-21T02:47:17.639Z,79.50
2023-07-21T02:49:45.549Z,78.68
2023-07-21T02:52:13.035Z,79.49
2023-07-21T02:54:39.927Z,79.06
2023-07-21T02:57:08.597Z,79.40
2023-07-21T02:59:35.740Z,79.81
2023-07-21T03:02:02.375Z,79.68
2023-07-21T03:04:29.538Z,79.02
2023-07-21T03:06:56.598Z,79.54
2023-07-21T03:09:23.308Z,79.25
2023-07-21T03:11:49.867Z,79.43
2023-07-21T03:14:16.469Z,79.41
2023-07-21T03:16:43.999Z,80.09
2023-07-21T03:19:11.513Z,79.74
2023-07-21T03:21:38.078Z,79.61
2023-07-21T03:24:05.213Z,80.26
2023-07-21T03:26:31.810Z,80.50
2023-07-21T03:28:58.377Z,80.08
2023-07-21T03:31:25.081Z,80.12
2023-07-21T03:33:51.690Z,80.33
2023-07-21T03:36:21.636Z,80.01
2023-07-21T03:38:48.393Z,79.65
2023-07-21T03:41:14.939Z,79.82
2023-07-21T03:43:41.547Z,80.12
2023-07-21T03:46:08.759Z,79.84
2023-07-21T03:48:35.742Z,79.73
2023-07-21T03:51:11.514Z,80.23
2023-07-21T03:53:46.549Z,79.84
2023-07-21T03:56:13.089Z,80.05
2023-07-21T03:58:39.701Z,79.65
2023-07-21T04:01:06.376Z,80.31
2023-07-21T04:03:33.093Z,80.40
2023-07-21T04:06:05.314Z,79.91
2023-07-21T04:08:32.012Z,80.24
2023-07-21T04:10:58.594Z,80.33
2023-07-21T04:13:25.628Z,80.56
2023-07-21T04:15:52.501Z,80.64
2023-07-21T04:18:19.283Z,80.24
2023-07-21T04:20:45.851Z,80.29
2023-07-21T04:23:12.394Z,80.73
2023-07-21T04:25:38.954Z,80.51
2023-07-21T04:28:06.797Z,80.66
2023-07-21T04:30:33.500Z,80.71
2023-07-21T04:33:00.638Z,80.52
2023-07-21T04:35:27.288Z,80.75
2023-07-21T04:37:53.943Z,81.03
2023-07-21T04:40:21.403Z,81.53
2023-07-21T04:42:49.000Z,81.38
2023-07-21T04:45:15.561Z,80.76
2023-07-21T04:47:42.329Z,81.39
2023-07-21T04:50:09.571Z,81.67
2023-07-21T04:52:38.498Z,81.25
2023-07-21T04:55:07.032Z,81.95
2023-07-21T04:57:35.423Z,81.65
2023-07-21T05:00:03.457Z,81.06
2023-07-21T05:02:30.965Z,81.12
2023-07-21T05:05:01.002Z,81.42
2023-07-21T05:07:27.807Z,81.35
2023-07-21T05:09:56.980Z,81.41
2023-07-21T05:12:26.967Z,81.80
2023-07-21T05:14:53.718Z,81.55
2023-07-21T05:17:20.791Z,81.92
2023-07-21T05:19:50.820Z,81.51
2023-07-21T05:22:17.796Z,81.29
2023-07-21T05:24:44.579Z,81.77
2023-07-21T05:27:12.434Z,81.50
2023-07-21T05:29:39.045Z,81.56
2023-07-21T05:32:07.098Z,81.77
2023-07-21T05:34:34.087Z,82.02
2023-07-21T05:37:01.780Z,82.04
2023-07-21T05:39:31.531Z,82.13
2023-07-21T05:41:59.446Z,81.17
2023-07-21T05:44:28.134Z,81.86
2023-07-21T05:46:55.132Z,81.86
2023-07-21T05:49:22.109Z,83.01
2023-07-21T05:51:50.383Z,82.13
2023-07-21T05:54:17.329Z,82.00
2023-07-21T05:56:43.835Z,82.56
2023-07-21T05:59:10.393Z,82.57
2023-07-21T06:01:37.663Z,82.30
2023-07-21T06:04:07.324Z,81.45
2023-07-21T06:06:34.132Z,81.83
2023-07-21T06:09:00.866Z,82.06
2023-07-21T06:11:28.323Z,81.70
2023-07-21T06:13:55.732Z,81.02
2023-07-21T06:16:26.455Z,80.84
2023-07-21T06:18:53.933Z,80.84
2023-07-21T06:21:24.229Z,80.56
2023-07-21T06:23:52.699Z,80.47
2023-07-21T06:26:19.428Z,80.50
2023-07-21T06:28:46.165Z,80.38
2023-07-21T06:31:13.469Z,80.38
2023-07-21T06:33:40.208Z,80.66
2023-07-21T06:36:07.287Z,80.77
2023-07-21T06:38:34.723Z,80.43
2023-07-21T06:41:05.570Z,80.51
2023-07-21T06:43:35.325Z,80.49
2023-07-21T06:46:03.895Z,80.36
2023-07-21T06:48:30.788Z,80.63
2023-07-21T06:50:57.812Z,80.75
2023-07-21T06:53:24.603Z,80.60
2023-07-21T06:55:51.931Z,80.05
2023-07-21T06:58:18.953Z,79.94
2023-07-21T07:00:46.646Z,80.43
2023-07-21T07:03:13.397Z,80.25
2023-07-21T07:05:43.082Z,80.03
2023-07-21T07:08:11.835Z,80.01
2023-07-21T07:10:40.136Z,79.66
2023-07-21T07:13:07.164Z,79.25
2023-07-21T07:15:35.458Z,79.40
2023-07-21T07:18:03.273Z,79.07
2023-07-21T07:20:30.378Z,79.45
2023-07-21T07:22:57.362Z,79.11
2023-07-21T07:25:27.298Z,78.39
2023-07-21T07:27:54.207Z,78.02
2023-07-21T07:30:21.753Z,77.79
2023-07-21T07:32:49.951Z,77.62
2023-07-21T07:35:17.831Z,77.60
2023-07-21T07:37:44.874Z,77.40
2023-07-21T07:40:11.959Z,76.95
2023-07-21T07:42:41.270Z,77.04
2023-07-21T07:45:08.107Z,76.35
2023-07-21T07:47:35.958Z,75.69
2023-07-21T07:50:03.021Z,75.41
2023-07-21T07:52:29.640Z,74.79
2023-07-21T07:54:56.440Z,74.62
2023-07-21T07:57:26.236Z,75.00
2023-07-21T07:59:52.870Z,74.38
2023-07-21T08:02:19.479Z,74.64
2023-07-21T08:04:46.113Z,73.38
2023-07-21T08:07:12.967Z,72.65
2023-07-21T08:09:39.585Z,72.22
2023-07-21T08:12:06.408Z,71.38
2023-07-21T08:14:33.018Z,70.81
2023-07-21T08:17:03.690Z,68.84
2023-07-21T08:19:33.136Z,68.08
2023-07-21T08:22:08.480Z,66.47
2023-07-21T08:24:35.290Z,65.14
2023-07-21T08:27:04.829Z,62.18
2023-07-21T08:29:31.424Z,64.01
2023-07-21T08:31:58.116Z,63.32
2023-07-21T08:34:24.789Z,62.09
2023-07-21T08:36:54.974Z,63.21
2023-07-21T08:39:22.534Z,63.83
2023-07-21T08:41:53.172Z,60.87
2023-07-21T08:44:21.020Z,63.22
2023-07-21T08:46:47.780Z,64.57
2023-07-21T08:49:18.590Z,63.11
2023-07-21T08:51:46.741Z,62.77
2023-07-21T08:54:13.755Z,61.84
2023-07-21T08:56:40.470Z,60.26
2023-07-21T08:59:07.688Z,63.31
2023-07-21T09:01:34.308Z,62.57
2023-07-21T09:04:01.371Z,63.48
2023-07-21T09:06:28.275Z,63.41
2023-07-21T09:08:55.956Z,62.41
2023-07-21T09:11:26.041Z,61.34
2023-07-21T09:13:55.496Z,62.18
2023-07-21T09:16:22.763Z,60.42
2023-07-21T09:18:49.910Z,57.65
2023-07-21T09:21:24.817Z,60.29
2023-07-21T09:23:52.774Z,61.54
2023-07-21T09:26:24.437Z,60.60
2023-07-21T09:28:51.772Z,57.61
2023-07-21T09:31:18.627Z,54.80
2023-07-21T09:33:46.913Z,56.50
2023-07-21T09:36:16.831Z,54.28
2023-07-21T09:38:45.196Z,54.31
2023-07-21T09:41:14.393Z,53.51
2023-07-21T09:43:45.075Z,54.86
2023-07-21T09:48:43.036Z,56.99
2023-07-21T09:51:11.448Z,55.65
2023-07-21T09:53:40.489Z,55.57
2023-07-21T09:56:09.836Z,54.53
2023-07-21T09:58:43.198Z,56.04
2023-07-21T10:01:14.141Z,55.12
2023-07-21T10:03:43.136Z,57.69
2023-07-21T10:06:10.875Z,58.23
2023-07-21T10:08:39.562Z,57.90
2023-07-21T10:11:08.382Z,56.81
2023-07-21T10:13:44.158Z,56.60
2023-07-21T10:16:11.039Z,57.62
2023-07-21T10:19:14.162Z,58.05
2023-07-21T10:21:54.806Z,58.89
2023-07-21T10:24:26.744Z,59.09
2023-07-21T10:27:01.084Z,58.64
2023-07-21T10:29:27.906Z,58.15
2023-07-21T10:31:58.430Z,58.32
2023-07-21T10:34:31.746Z,58.44
2023-07-21T10:37:05.770Z,59.08
2023-07-21T10:39:35.633Z,59.74
2023-07-21T10:42:06.193Z,60.08
2023-07-21T10:44:40.618Z,60.05
2023-07-21T10:47:22.206Z,59.83
2023-07-21T10:49:50.283Z,58.70
2023-07-21T10:52:17.972Z,58.53
2023-07-21T10:54:44.845Z,58.08
2023-07-21T10:57:12.434Z,58.31
2023-07-21T10:59:39.236Z,58.03
2023-07-21T11:02:10.631Z,57.89
2023-07-21T11:04:41.682Z,53.15
2023-07-21T11:07:08.760Z,51.93
2023-07-21T11:09:36.489Z,55.04
2023-07-21T11:12:05.387Z,53.25
2023-07-21T11:14:32.465Z,45.37
2023-07-21T11:17:01.937Z,47.22
2023-07-21T11:19:35.102Z,49.50
2023-07-21T11:22:04.253Z,48.80
2023-07-21T11:24:32.649Z,45.44
2023-07-21T11:27:12.309Z,45.94
2023-07-21T11:29:45.987Z,43.02
2023-07-21T11:32:24.881Z,45.18
2023-07-21T11:34:59.529Z,43.08
2023-07-21T11:37:35.587Z,43.44
2023-07-21T11:40:16.244Z,45.63
2023-07-21T11:42:53.952Z,46.68
2023-07-21T11:45:40.696Z,46.12
2023-07-21T11:48:20.514Z,45.35
2023-07-21T11:50:55.529Z,45.13
2023-07-21T11:53:24.328Z,44.07
2023-07-21T11:55:51.453Z,44.69
2023-07-21T11:58:18.100Z,45.62
2023-07-21T12:00:45.046Z,45.75
2023-07-21T12:03:12.163Z,44.13
2023-07-21T12:05:39.586Z,43.20
2023-07-21T12:08:07.217Z,39.67
2023-07-21T12:10:33.989Z,39.12
2023-07-21T12:13:00.794Z,40.73
2023-07-21T12:15:30.622Z,41.00
2023-07-21T12:17:57.462Z,41.74
2023-07-21T12:20:24.146Z,42.09
2023-07-21T12:22:50.767Z,41.10
2023-07-21T12:25:17.353Z,40.63
2023-07-21T12:27:44.039Z,39.83
2023-07-21T12:30:12.006Z,40.17
2023-07-21T12:32:38.977Z,40.87
2023-07-21T12:35:06.352Z,41.78
2023-07-21T12:37:33.880Z,42.43
2023-07-21T12:40:01.230Z,43.29
2023-07-21T12:42:32.534Z,43.44
2023-07-21T12:44:59.161Z,43.69
2023-07-21T12:47:25.829Z,44.10
2023-07-21T12:49:52.478Z,44.54
2023-07-21T12:52:19.172Z,45.43
2023-07-21T12:54:46.976Z,45.63
2023-07-21T12:57:13.839Z,46.23
2023-07-21T12:59:40.528Z,46.65
2023-07-21T13:02:07.539Z,46.50
2023-07-21T13:04:34.256Z,46.77
2023-07-21T13:07:01.630Z,47.26
2023-07-21T13:09:28.397Z,47.13
2023-07-21T13:11:55.288Z,47.61
2023-07-21T13:14:22.052Z,48.49
2023-07-21T13:16:48.681Z,48.70
2023-07-21T13:19:15.272Z,49.13
2023-07-21T13:21:42.091Z,49.51
2023-07-21T13:24:08.740Z,49.52
2023-07-21T13:26:36.157Z,49.43
2023-07-21T13:29:03.203Z,49.63
2023-07-21T13:31:30.136Z,50.45
2023-07-21T13:33:57.529Z,51.64
2023-07-21T13:36:24.868Z,51.90
2023-07-21T13:38:53.293Z,51.64
2023-07-21T13:41:20.140Z,51.62
2023-07-21T13:43:46.930Z,51.52
2023-07-21T13:46:13.705Z,52.17
2023-07-21T13:48:40.821Z,52.00
2023-07-21T13:51:07.744Z,52.26
2023-07-21T13:53:34.650Z,52.22
2023-07-21T13:56:03.722Z,51.93
2023-07-21T13:58:30.521Z,51.45
2023-07-21T14:00:57.328Z,51.71
2023-07-21T14:03:24.309Z,50.43
2023-07-21T14:05:53.176Z,49.04
2023-07-21T14:08:20.801Z,49.94
2023-07-21T14:10:47.663Z,50.15
2023-07-21T14:13:14.532Z,49.83
2023-07-21T14:15:41.349Z,50.03
2023-07-21T14:18:08.207Z,49.86
2023-07-21T14:20:35.304Z,49.42
2023-07-21T14:23:02.166Z,49.44
2023-07-21T14:25:29.156Z,49.95
2023-07-21T14:27:56.370Z,49.43
2023-07-21T14:30:23.243Z,48.44
2023-07-21T14:32:49.888Z,48.92
2023-07-21T14:35:18.973Z,49.43
2023-07-21T14:37:45.542Z,49.25
2023-07-21T14:40:12.731Z,49.42
2023-07-21T14:42:40.007Z,49.52
2023-07-21T14:45:08.259Z,49.76
2023-07-21T14:47:35.498Z,49.70
2023-07-21T14:50:02.527Z,49.96
2023-07-21T14:52:30.660Z,49.87
2023-07-21T14:54:59.023Z,48.23
2023-07-21T14:57:27.217Z,48.79
2023-07-21T14:59:53.892Z,49.16
2023-07-21T15:02:21.239Z,49.81
2023-07-21T15:04:48.833Z,49.57
2023-07-21T15:07:16.179Z,49.62
2023-07-21T15:09:44.253Z,49.93
2023-07-21T15:12:10.856Z,49.76
2023-07-21T15:14:37.406Z,49.57
2023-07-21T15:17:04.489Z,49.87
2023-07-21T15:19:31.074Z,50.01
2023-07-21T15:21:57.608Z,49.59
2023-07-21T15:24:24.159Z,49.58
2023-07-21T15:26:50.766Z,49.32
2023-07-21T15:29:17.312Z,49.57
2023-07-21T15:31:43.954Z,50.14
2023-07-21T15:34:13.328Z,49.81
2023-07-21T15:36:39.898Z,50.04
2023-07-21T15:39:07.708Z,49.65
2023-07-21T15:41:34.303Z,48.86
2023-07-21T15:44:00.847Z,48.28
2023-07-21T15:46:28.823Z,48.09
2023-07-21T15:48:55.881Z,48.90
2023-07-21T15:51:23.520Z,48.76
2023-07-21T15:53:56.641Z,49.20
2023-07-21T15:56:29.823Z,49.49
2023-07-21T15:58:56.817Z,49.63
2023-07-21T16:01:23.576Z,50.08
2023-07-21T16:03:53.200Z,49.62
2023-07-21T16:06:19.761Z,49.67
2023-07-21T16:08:47.703Z,51.26
2023-07-21T16:11:14.282Z,51.65
2023-07-21T16:13:40.877Z,52.18
2023-07-21T16:16:07.550Z,52.45
2023-07-21T16:18:34.353Z,51.99
2023-07-21T16:21:00.997Z,51.65
2023-07-21T16:23:27.620Z,51.25
2023-07-21T16:25:54.941Z,50.93
2023-07-21T16:28:21.762Z,50.79
2023-07-21T16:30:48.882Z,51.15
2023-07-21T16:33:15.601Z,51.66
2023-07-21T16:35:42.610Z,52.01
2023-07-21T16:38:09.762Z,52.10
2023-07-21T16:40:36.510Z,51.67
2023-07-21T16:43:03.763Z,51.86
2023-07-21T16:45:30.720Z,52.40
2023-07-21T16:47:57.612Z,53.09
2023-07-21T16:50:26.652Z,53.19
2023-07-21T16:52:53.405Z,53.85
2023-07-21T16:55:20.440Z,54.09
2023-07-21T16:57:47.748Z,54.31
2023-07-21T17:00:16.860Z,54.31
2023-07-21T17:02:43.777Z,54.69
2023-07-21T17:05:25.211Z,54.97
2023-07-21T17:07:57.483Z,55.26
2023-07-21T17:10:24.786Z,55.80
2023-07-21T17:12:51.556Z,56.06
2023-07-21T17:15:18.387Z,55.64
2023-07-21T17:17:45.548Z,56.03
2023-07-21T17:20:13.599Z,56.52
2023-07-21T17:22:46.771Z,56.10
2023-07-21T17:25:13.924Z,55.57
2023-07-21T17:27:40.688Z,55.89
2023-07-21T17:30:08.034Z,55.85
2023-07-21T17:32:34.814Z,57.95
2023-07-21T17:35:01.707Z,60.14
2023-07-21T17:37:28.497Z,65.99
2023-07-21T17:39:55.389Z,68.21
2023-07-21T17:42:22.533Z,71.98
2023-07-21T17:44:49.285Z,73.34
2023-07-21T17:47:16.121Z,74.77
2023-07-21T17:49:42.945Z,73.23
2023-07-21T17:52:09.715Z,74.25
2023-07-21T17:54:36.460Z,74.38
2023-07-21T17:57:04.755Z,74.78
2023-07-21T17:59:32.027Z,75.46
2023-07-21T18:01:58.946Z,75.97
2023-07-21T18:04:26.161Z,76.05
2023-07-21T18:06:52.957Z,76.59
2023-07-21T18:09:19.727Z,77.04
2023-07-21T18:11:46.494Z,77.07
2023-07-21T18:14:13.449Z,77.07
2023-07-21T18:16:40.204Z,77.04
2023-07-21T18:19:07.917Z,76.91
2023-07-21T18:21:35.522Z,77.27
2023-07-21T18:24:02.268Z,77.17
2023-07-21T18:26:29.050Z,77.47
2023-07-21T18:28:56.024Z,77.60
2023-07-21T18:31:25.263Z,77.52
2023-07-21T18:33:52.308Z,77.46
2023-07-21T18:36:20.386Z,77.58
2023-07-21T18:38:47.647Z,77.86
2023-07-21T18:41:15.721Z,78.03
2023-07-21T18:43:43.373Z,78.23
2023-07-21T18:46:10.155Z,78.07
2023-07-21T18:48:36.910Z,78.18
2023-07-21T18:51:03.780Z,78.57
2023-07-21T18:53:30.736Z,78.58
2023-07-21T18:55:57.503Z,79.24
2023-07-21T18:58:24.310Z,79.08
2023-07-21T19:00:51.431Z,79.38
2023-07-21T19:03:18.333Z,79.22
2023-07-21T19:05:45.100Z,79.51
2023-07-21T19:08:12.150Z,80.03
2023-07-21T19:10:40.271Z,80.16
2023-07-21T19:13:06.900Z,80.11
2023-07-21T19:15:33.489Z,80.00
2023-07-21T19:18:00.203Z,79.93
2023-07-21T19:20:26.847Z,79.98
2023-07-21T19:22:53.390Z,80.12
2023-07-21T19:25:19.951Z,80.01
2023-07-21T19:27:46.569Z,79.74
2023-07-21T19:30:14.619Z,79.88
2023-07-21T19:32:43.209Z,80.18
2023-07-21T19:35:10.435Z,80.13
2023-07-21T19:37:38.146Z,80.28
2023-07-21T19:40:08.174Z,80.50
2023-07-21T19:42:34.773Z,80.78
2023-07-21T19:45:01.380Z,81.12
2023-07-21T19:47:29.659Z,81.49
2023-07-21T19:49:56.189Z,81.42
2023-07-21T19:52:22.732Z,81.81
2023-07-21T19:54:49.303Z,82.09
2023-07-21T19:57:16.062Z,82.29
2023-07-21T19:59:42.640Z,82.48
2023-07-21T20:02:09.319Z,82.80
2023-07-21T20:04:36.170Z,83.02
2023-07-21T20:07:05.516Z,82.76
2023-07-21T20:09:32.266Z,83.62
2023-07-21T20:11:58.826Z,83.33
2023-07-21T20:14:25.418Z,83.80
2023-07-21T20:16:52.041Z,83.97
2023-07-21T20:19:18.625Z,83.50
2023-07-21T20:21:45.217Z,83.69
2023-07-21T20:24:11.923Z,84.16
2023-07-21T20:26:38.919Z,83.92
2023-07-21T20:29:06.212Z,84.05
2023-07-21T20:31:32.943Z,84.54
2023-07-21T20:33:59.926Z,84.20
2023-07-21T20:36:26.752Z,84.41
2023-07-21T20:38:53.570Z,84.34
2023-07-21T20:41:20.149Z,84.35
2023-07-21T20:43:46.940Z,84.46
2023-07-21T20:46:13.940Z,84.61
2023-07-21T20:48:40.522Z,84.34
2023-07-21T20:51:07.076Z,84.21
2023-07-21T20:53:33.653Z,84.62
2023-07-21T20:56:00.244Z,84.92
2023-07-21T20:58:26.857Z,84.30
2023-07-21T21:00:58.705Z,84.63
2023-07-21T21:03:25.665Z,84.56
2023-07-21T21:05:57.009Z,84.51
2023-07-21T21:08:23.734Z,84.53
2023-07-21T21:10:50.531Z,84.67
2023-07-21T21:13:17.399Z,84.62
2023-07-21T21:15:47.832Z,84.25
2023-07-21T21:18:15.299Z,84.37
2023-07-21T21:20:42.124Z,84.70
2023-07-21T21:23:08.676Z,84.89
2023-07-21T21:25:36.081Z,85.05
2023-07-21T21:28:02.870Z,84.74
2023-07-21T21:30:29.706Z,84.89
2023-07-21T21:32:56.273Z,85.03
2023-07-21T21:35:22.834Z,85.35
2023-07-21T21:37:50.223Z,85.16
2023-07-21T21:40:16.820Z,85.06
2023-07-21T21:42:43.382Z,84.98
2023-07-21T21:45:10.475Z,85.21
2023-07-21T21:47:37.118Z,84.92
2023-07-21T21:50:03.929Z,85.26
2023-07-21T21:52:30.612Z,85.38
2023-07-21T21:54:57.424Z,85.75
2023-07-21T21:57:24.130Z,85.09
2023-07-21T21:59:50.876Z,85.39
2023-07-21T22:02:17.601Z,85.51
2023-07-21T22:04:45.836Z,85.50
2023-07-21T22:07:13.642Z,85.43
2023-07-21T22:09:40.275Z,85.38
2023-07-21T22:12:09.318Z,85.34
2023-07-21T22:14:36.769Z,85.95
2023-07-21T22:17:03.861Z,85.31
2023-07-21T22:19:30.601Z,85.71
2023-07-21T22:21:57.308Z,85.54
2023-07-21T22:24:25.034Z,85.78
2023-07-21T22:26:51.898Z,86.00
2023-07-21T22:29:18.573Z,85.62
2023-07-21T22:31:45.318Z,85.59
2023-07-21T22:34:12.216Z,86.30
2023-07-21T22:36:38.930Z,86.01
2023-07-21T22:39:07.563Z,85.59
2023-07-21T22:41:34.609Z,86.30
2023-07-21T22:44:01.450Z,86.21
2023-07-21T22:46:28.545Z,86.00
2023-07-21T22:48:55.452Z,86.31
2023-07-21T22:51:23.405Z,86.29
2023-07-21T22:53:50.085Z,86.56
2023-07-21T22:56:16.730Z,86.71
2023-07-21T22:58:43.642Z,85.95
2023-07-21T23:01:11.874Z,86.42
2023-07-21T23:03:38.644Z,86.13
2023-07-21T23:06:05.915Z,86.70
2023-07-21T23:08:33.873Z,86.67
2023-07-21T23:11:00.676Z,86.71
2023-07-21T23:13:27.447Z,86.80
2023-07-21T23:15:54.334Z,86.51
2023-07-21T23:18:21.267Z,86.66
2023-07-21T23:20:48.293Z,86.04
2023-07-21T23:23:15.183Z,86.46
2023-07-21T23:25:42.226Z,86.76
2023-07-21T23:28:10.997Z,86.54
2023-07-21T23:30:38.775Z,87.03
2023-07-21T23:33:06.574Z,86.81
2023-07-21T23:35:33.677Z,87.34
2023-07-21T23:38:01.000Z,86.79
2023-07-21T23:40:28.930Z,87.02
2023-07-21T23:42:55.829Z,87.08
2023-07-21T23:45:22.796Z,87.25
2023-07-21T23:47:50.502Z,87.37
2023-07-21T23:50:17.543Z,87.02
2023-07-21T23:52:44.452Z,86.74
2023-07-21T23:55:11.324Z,87.03
2023-07-21T23:57:38.220Z,87.26
